Terminal Aerodrome Forecast
Issued by NWS

Home | Current Version | Previous Version | Text Only | Print | Product List | Glossary On
Versions: 1 2 3 4 5 6 7 8 9 10 11 12 13
000
FTUS42 KILM 171720
TAFCRE
TAF
KCRE 171720Z 1718/1818 36004KT P6SM BKN150
     FM171900 32010KT P6SM VCSH OVC070
     FM172100 32011G18KT 6SM -RA OVC035
     FM172300 33013G20KT P6SM -RA OVC008
      TEMPO 1801/1803 4SM -SHSN
     FM180300 34015G23KT P6SM SCT020=

USA.gov is the U.S. government's official web portal to all federal, state and local government web resources and services.